Reading, Jamaica
Current Conditions -  °F | °C
As of 11:00 PM on Saturday 25 Oct 2014 (Local Time) from MKJS Reporting Station
Light Rain Light Rain  
Wind Chill: 79°   Ceiling: 3200
Heat Index: 83°   Visibility: 6mi
Dew Point: 79°   Wind: 5mph
Humidity: 100%   Direction: 220°SW
Pressure: 29.83"   Gusts: NA
Location:  18.45°N, 77.95°W
Report Text: MKJS 260400Z 22004KT 9999 -RA FEW022 BKN032 26/26 Q1010
Loading
Personal Weather Stations






























Interactive Weather Map
Tropical Storm Tracking
New forecast layout! Learn more

10-Day Weather Forecast

Advertisements
Track Severe Weather on mobile